Terminal Aerodrome Forecast
Issued by NWS Anchorage, AK

Home | Current Version | Previous Version | Text Only | Print | Product List | Glossary On
Versions: 1 2 3 4 5 6 7 8 9 10 11 12 13 14 15 16 17 18 19 20 21 22 23 24 25 26 27 28 29 30 31 32 33 34
423
FTAK31 PANC 131131
TAFANC
TAF
PANC 131131Z 1312/1418 VRB03KT P6SM -RASN BKN045 OVC080
      TEMPO 1312/1313 -FZRASN
     FM131300 01008KT P6SM VCSH BKN050 OVC080
     FM131800 35005KT P6SM VCSH BKN070 BKN100 WS020/13030KT
     FM140400 02006KT P6SM VCSH BKN080=

USA.gov is the U.S. government's official web portal to all federal, state and local government web resources and services.